Time;durP1;ratioP1;P1;durP2;ratioP2;P2;SDS_P1;SDS_P2;PMS_P1;PMS_P2;Temp;Humidity;BMP_temperature;BMP_pressure;BME280_temperature;BME280_humidity;BME280_pressure;Samples;Min_cycle;Max_cycle;Signal;HPM_P1;HPM_P2
2021/03/07 00:00:39;;;;;;;4.40;3.35;;;4.20;98.50;;;;;;5070988;28;20105;-64
2021/03/07 00:03:05;;;;;;;5.10;3.25;;;4.20;98.30;;;;;;5071539;28;20468;-62
2021/03/07 00:05:30;;;;;;;5.15;3.20;;;4.20;98.30;;;;;;5070443;28;20025;-64
2021/03/07 00:07:56;;;;;;;6.03;4.10;;;4.20;98.50;;;;;;5071275;28;20503;-63
2021/03/07 00:10:22;;;;;;;4.95;3.72;;;4.20;98.60;;;;;;5071571;28;20038;-64
2021/03/07 00:12:49;;;;;;;4.95;3.38;;;4.20;98.40;;;;;;5071360;28;20451;-63
2021/03/07 00:15:17;;;;;;;7.63;3.78;;;4.20;98.50;;;;;;5070637;28;20028;-61
2021/03/07 00:17:42;;;;;;;5.28;3.63;;;4.20;98.20;;;;;;5071333;28;20025;-63
2021/03/07 00:20:11;;;;;;;6.75;3.17;;;4.20;98.00;;;;;;5071540;28;20089;-63
2021/03/07 00:22:38;;;;;;;7.65;3.30;;;4.20;98.30;;;;;;5071236;28;20108;-64
2021/03/07 00:25:08;;;;;;;5.38;3.55;;;4.10;98.40;;;;;;5071132;28;20036;-64
2021/03/07 00:27:33;;;;;;;7.50;3.95;;;4.10;98.40;;;;;;5071398;28;20390;-64
2021/03/07 00:29:59;;;;;;;3.65;2.78;;;4.10;98.70;;;;;;5070587;28;20128;-63
2021/03/07 00:32:24;;;;;;;4.63;3.30;;;4.10;98.40;;;;;;5073420;28;20044;-64
2021/03/07 00:34:50;;;;;;;4.47;3.28;;;4.10;98.20;;;;;;5075373;28;20403;-63
2021/03/07 00:37:16;;;;;;;7.80;3.83;;;4.10;98.20;;;;;;5075098;28;20383;-61
2021/03/07 00:39:41;;;;;;;4.53;3.38;;;4.10;98.50;;;;;;5075199;28;20028;-63
2021/03/07 00:42:07;;;;;;;4.93;2.83;;;4.10;98.20;;;;;;5075222;28;20104;-59
2021/03/07 00:44:33;;;;;;;5.78;3.20;;;4.10;98.20;;;;;;5073122;28;20029;-62
2021/03/07 00:46:58;;;;;;;5.35;2.88;;;4.10;98.20;;;;;;5074868;28;20895;-63
2021/03/07 00:49:31;;;;;;;6.88;3.35;;;4.00;97.90;;;;;;5075007;28;20025;-63
2021/03/07 00:51:57;;;;;;;8.90;2.90;;;4.00;97.90;;;;;;5073842;28;20090;-63
2021/03/07 00:54:24;;;;;;;5.18;2.90;;;4.00;97.80;;;;;;5074390;28;20048;-63
2021/03/07 00:56:51;;;;;;;4.55;2.47;;;4.00;97.90;;;;;;5080519;28;20102;-64
2021/03/07 00:59:16;;;;;;;4.47;2.80;;;3.90;97.90;;;;;;5094998;28;20146;-65
2021/03/07 01:01:42;;;;;;;5.10;2.63;;;3.80;97.80;;;;;;5093984;28;20480;-63
2021/03/07 01:04:07;;;;;;;4.63;2.83;;;3.80;98.00;;;;;;5080331;28;20025;-64
2021/03/07 01:06:34;;;;;;;5.97;2.58;;;3.80;98.30;;;;;;5074793;28;20029;-62
2021/03/07 01:08:59;;;;;;;4.53;2.95;;;3.70;98.20;;;;;;5074424;28;20104;-63
2021/03/07 01:11:26;;;;;;;3.67;2.40;;;3.60;98.30;;;;;;5074473;28;20159;-62
2021/03/07 01:13:52;;;;;;;3.85;2.72;;;3.50;98.40;;;;;;5074512;28;20032;-63
2021/03/07 01:16:18;;;;;;;5.20;3.13;;;3.50;98.40;;;;;;5073577;28;20031;-63
2021/03/07 01:18:43;;;;;;;8.52;2.83;;;3.40;98.30;;;;;;5074415;28;20046;-63
2021/03/07 01:21:09;;;;;;;4.50;2.60;;;3.30;98.10;;;;;;5074410;28;20606;-63
2021/03/07 01:23:35;;;;;;;6.53;2.33;;;3.30;98.00;;;;;;5074178;28;20057;-64
2021/03/07 01:26:01;;;;;;;4.55;2.35;;;3.20;98.10;;;;;;5074412;28;20029;-63
2021/03/07 01:28:27;;;;;;;4.28;2.53;;;3.20;98.00;;;;;;5074458;28;20032;-61
2021/03/07 01:30:52;;;;;;;3.67;2.70;;;3.30;97.90;;;;;;5073464;28;20035;-63
2021/03/07 01:33:18;;;;;;;4.20;2.50;;;3.30;97.80;;;;;;5074001;28;20531;-62
2021/03/07 01:35:44;;;;;;;2.78;2.30;;;3.40;97.70;;;;;;5072890;28;20052;-61
2021/03/07 01:38:09;;;;;;;6.15;2.85;;;3.40;97.70;;;;;;5072586;28;20467;-63
2021/03/07 01:40:43;;;;;;;4.63;2.50;;;3.40;97.60;;;;;;5074058;28;20029;-63
2021/03/07 01:43:09;;;;;;;4.47;2.72;;;3.50;97.50;;;;;;5073276;28;20062;-63
2021/03/07 01:45:35;;;;;;;4.47;2.90;;;3.50;97.30;;;;;;5073163;28;20039;-63
2021/03/07 01:48:05;;;;;;;5.18;3.30;;;3.50;97.40;;;;;;5075459;28;20037;-63
2021/03/07 01:50:33;;;;;;;4.10;2.50;;;3.50;97.60;;;;;;5090254;28;20025;-61
2021/03/07 01:52:59;;;;;;;4.93;2.65;;;3.50;97.50;;;;;;5073981;28;20135;-63
2021/03/07 01:55:27;;;;;;;4.47;2.58;;;3.50;97.60;;;;;;5073535;28;20050;-62
2021/03/07 01:57:58;;;;;;;4.53;2.85;;;3.40;97.90;;;;;;5073717;28;20052;-61
2021/03/07 02:00:24;;;;;;;5.28;3.45;;;3.40;98.30;;;;;;5072769;28;20052;-60
2021/03/07 02:02:50;;;;;;;8.30;3.75;;;3.40;98.50;;;;;;5073670;28;20459;-61
2021/03/07 02:05:18;;;;;;;6.97;3.05;;;3.30;99.10;;;;;;5073529;28;20040;-62
2021/03/07 02:07:44;;;;;;;4.10;3.22;;;3.30;99.10;;;;;;5073620;28;20025;-63
2021/03/07 02:10:12;;;;;;;6.00;2.58;;;3.20;98.80;;;;;;5073541;28;20503;-63
2021/03/07 02:12:40;;;;;;;7.13;2.85;;;3.20;98.90;;;;;;5073380;28;20024;-62
2021/03/07 02:15:08;;;;;;;4.80;2.83;;;3.20;99.20;;;;;;5071210;28;20029;-63
2021/03/07 02:17:34;;;;;;;7.22;3.08;;;3.20;99.10;;;;;;5072092;28;20028;-59
2021/03/07 02:20:00;;;;;;;5.07;3.00;;;3.20;99.00;;;;;;5073325;28;20029;-63
2021/03/07 02:22:33;;;;;;;3.33;2.45;;;3.20;99.10;;;;;;5073161;28;20028;-63
2021/03/07 02:24:59;;;;;;;5.95;3.47;;;3.20;99.20;;;;;;5073907;28;20033;-63
2021/03/07 02:27:25;;;;;;;4.55;2.60;;;3.30;99.00;;;;;;5074114;28;20047;-62
2021/03/07 02:29:52;;;;;;;3.53;2.38;;;3.30;99.20;;;;;;5073142;28;20059;-61
2021/03/07 02:32:21;;;;;;;6.43;2.85;;;3.20;99.10;;;;;;5074075;28;20032;-63
2021/03/07 02:35:11;;;;;;;4.18;2.50;;;3.20;99.30;;;;;;5073823;28;20031;-62
2021/03/07 02:37:40;;;;;;;3.13;2.38;;;3.20;99.40;;;;;;5073962;28;20013;-63
2021/03/07 02:40:08;;;;;;;5.72;2.30;;;3.20;99.50;;;;;;5073861;28;20013;-63
2021/03/07 02:42:37;;;;;;;4.07;2.10;;;3.20;99.70;;;;;;5073713;28;20031;-61
2021/03/07 02:45:06;;;;;;;4.50;2.15;;;3.20;99.90;;;;;;5072770;28;20115;-63
2021/03/07 02:47:33;;;;;;;5.53;2.33;;;3.20;99.90;;;;;;5072504;28;20025;-63
2021/03/07 02:50:08;;;;;;;3.42;2.03;;;3.20;99.20;;;;;;5073714;28;20037;-64
2021/03/07 02:52:36;;;;;;;2.72;1.92;;;3.20;98.80;;;;;;5053686;28;20029;-63
2021/03/07 02:55:03;;;;;;;4.90;2.08;;;3.20;97.90;;;;;;5052519;28;20119;-63
2021/03/07 02:57:30;;;;;;;3.40;2.15;;;3.20;97.60;;;;;;5053423;28;20063;-63
2021/03/07 02:59:57;;;;;;;2.78;1.70;;;3.20;97.00;;;;;;5052608;28;20020;-63
2021/03/07 03:02:26;;;;;;;2.05;1.50;;;3.10;96.40;;;;;;5053512;28;20017;-62
2021/03/07 03:04:53;;;;;;;1.90;1.58;;;3.10;96.20;;;;;;5053317;28;20027;-63
2021/03/07 03:07:20;;;;;;;5.65;1.80;;;3.10;96.00;;;;;;5053467;28;20029;-64
2021/03/07 03:09:47;;;;;;;5.15;1.60;;;3.00;96.00;;;;;;5053259;28;20033;-64
2021/03/07 03:12:14;;;;;;;2.95;1.40;;;3.00;95.90;;;;;;5053024;28;20100;-64
2021/03/07 03:14:41;;;;;;;4.88;1.65;;;3.00;95.80;;;;;;5052151;28;20024;-63
2021/03/07 03:17:08;;;;;;;1.27;1.15;;;3.00;95.60;;;;;;5053244;28;20022;-63
2021/03/07 03:19:34;;;;;;;5.38;1.50;;;2.90;95.40;;;;;;5053071;28;20104;-63
2021/03/07 03:22:01;;;;;;;3.67;1.60;;;2.90;95.30;;;;;;5053104;28;20116;-63
2021/03/07 03:24:27;;;;;;;2.00;1.30;;;2.90;95.20;;;;;;5053000;28;20108;-63
2021/03/07 03:27:02;;;;;;;1.75;1.50;;;2.90;95.20;;;;;;5053077;28;20104;-64
2021/03/07 03:29:31;;;;;;;1.63;1.20;;;2.80;95.20;;;;;;5052327;28;20071;-63
2021/03/07 03:32:00;;;;;;;5.15;1.40;;;2.80;95.30;;;;;;5053041;28;20055;-62
2021/03/07 03:34:25;;;;;;;4.38;1.13;;;2.80;95.40;;;;;;5051602;28;20380;-63
2021/03/07 03:36:51;;;;;;;4.30;1.20;;;2.80;95.40;;;;;;5052752;28;20029;-62
2021/03/07 03:39:20;;;;;;;1.98;1.55;;;2.80;95.50;;;;;;5052782;28;20021;-63
2021/03/07 03:41:49;;;;;;;1.77;1.50;;;2.80;95.60;;;;;;5052788;28;20028;-62
2021/03/07 03:44:19;;;;;;;1.88;1.20;;;2.80;95.50;;;;;;5052808;28;20081;-63
2021/03/07 03:46:48;;;;;;;1.60;1.20;;;2.90;95.60;;;;;;5051755;28;20466;-63
2021/03/07 03:49:20;;;;;;;3.20;1.40;;;2.80;95.40;;;;;;5052803;28;20067;-62
2021/03/07 03:51:47;;;;;;;3.78;1.20;;;2.80;95.40;;;;;;5066574;28;20539;-62
2021/03/07 03:54:16;;;;;;;2.95;1.48;;;2.80;95.30;;;;;;5072580;28;20471;-62
2021/03/07 03:56:43;;;;;;;6.70;1.52;;;2.80;95.10;;;;;;5072521;28;20056;-62
2021/03/07 03:59:11;;;;;;;2.05;1.38;;;2.80;95.10;;;;;;5072653;28;20083;-63
2021/03/07 04:01:37;;;;;;;4.13;1.88;;;2.80;95.10;;;;;;5071472;28;20025;-62
2021/03/07 04:04:05;;;;;;;2.17;1.20;;;2.70;95.00;;;;;;5072565;28;20028;-61
2021/03/07 04:06:31;;;;;;;2.22;0.95;;;2.80;94.90;;;;;;5072372;28;20033;-62
2021/03/07 04:08:57;;;;;;;3.55;1.10;;;2.80;94.80;;;;;;5072631;28;20147;-63
2021/03/07 04:11:23;;;;;;;4.85;0.90;;;2.80;94.80;;;;;;5072455;28;20107;-62
2021/03/07 04:13:50;;;;;;;6.35;1.20;;;2.70;94.90;;;;;;5072414;28;20119;-63
2021/03/07 04:16:16;;;;;;;3.97;1.20;;;2.70;94.70;;;;;;5071534;28;20039;-61
2021/03/07 04:18:43;;;;;;;1.92;1.05;;;2.80;94.70;;;;;;5072414;28;20407;-63
2021/03/07 04:21:09;;;;;;;2.75;1.00;;;2.80;94.70;;;;;;5072371;28;20025;-62
2021/03/07 04:23:35;;;;;;;3.42;1.20;;;2.80;94.60;;;;;;5072519;28;20048;-63
2021/03/07 04:26:01;;;;;;;3.05;1.30;;;2.70;94.50;;;;;;5072326;28;20387;-63
2021/03/07 04:28:27;;;;;;;4.32;1.50;;;2.80;94.50;;;;;;5072491;28;20031;-63
2021/03/07 04:30:53;;;;;;;2.83;1.17;;;2.70;94.30;;;;;;5071235;28;20052;-63
2021/03/07 04:33:20;;;;;;;5.28;1.67;;;2.70;94.20;;;;;;5072258;28;20032;-62
2021/03/07 04:35:45;;;;;;;2.05;1.48;;;2.70;94.30;;;;;;5072112;28;20074;-62
2021/03/07 04:38:11;;;;;;;3.08;1.73;;;2.70;94.20;;;;;;5072356;28;20024;-61
2021/03/07 04:40:39;;;;;;;4.03;1.45;;;2.70;94.10;;;;;;5072438;28;20479;-62
2021/03/07 04:43:06;;;;;;;4.00;2.17;;;2.70;94.00;;;;;;5072259;28;20023;-63
2021/03/07 04:45:31;;;;;;;1.60;1.50;;;2.80;93.90;;;;;;5071106;28;20108;-63
2021/03/07 04:47:58;;;;;;;5.70;1.73;;;2.80;93.80;;;;;;5072154;28;20056;-63
2021/03/07 04:50:23;;;;;;;7.88;2.08;;;2.70;93.70;;;;;;5071964;28;20029;-63
2021/03/07 04:52:49;;;;;;;4.72;2.08;;;2.80;93.60;;;;;;5072143;28;20035;-63
2021/03/07 04:55:15;;;;;;;5.07;1.40;;;2.80;93.50;;;;;;5071854;28;20045;-63
2021/03/07 04:57:41;;;;;;;1.92;1.40;;;2.80;93.40;;;;;;5072147;28;20046;-62
2021/03/07 05:00:09;;;;;;;2.92;1.70;;;2.80;93.40;;;;;;5071108;28;20029;-63
2021/03/07 05:02:35;;;;;;;2.63;1.40;;;2.80;93.30;;;;;;5071780;28;20025;-63
2021/03/07 05:05:01;;;;;;;3.92;1.42;;;2.80;93.30;;;;;;5072091;28;20138;-63
2021/03/07 05:07:27;;;;;;;7.68;2.28;;;2.80;93.30;;;;;;5071998;28;20051;-62
2021/03/07 05:09:53;;;;;;;2.80;1.60;;;2.80;93.30;;;;;;5070800;28;20080;-62
2021/03/07 05:12:18;;;;;;;3.10;1.85;;;2.80;93.10;;;;;;5071877;28;20033;-62
2021/03/07 05:14:44;;;;;;;4.93;1.73;;;2.80;93.30;;;;;;5070995;28;20028;-63
2021/03/07 05:17:10;;;;;;;6.25;1.92;;;2.70;92.80;;;;;;5071636;28;20078;-63
2021/03/07 05:19:35;;;;;;;2.08;1.63;;;2.80;92.90;;;;;;5074239;28;20035;-62
2021/03/07 05:22:02;;;;;;;3.60;2.00;;;2.70;92.60;;;;;;5075284;28;20031;-63
2021/03/07 05:24:28;;;;;;;4.15;1.50;;;2.80;92.60;;;;;;5075478;28;20024;-63
2021/03/07 05:26:53;;;;;;;7.20;1.80;;;2.80;92.60;;;;;;5075268;28;20083;-63
2021/03/07 05:29:19;;;;;;;2.22;1.70;;;2.70;92.60;;;;;;5075376;28;20032;-63
2021/03/07 05:31:44;;;;;;;5.45;2.78;;;2.80;92.50;;;;;;5073983;28;20112;-63
2021/03/07 05:34:10;;;;;;;2.47;1.60;;;2.80;92.40;;;;;;5073995;28;20025;-61
2021/03/07 05:36:36;;;;;;;3.53;2.00;;;2.70;92.40;;;;;;5074974;28;20043;-62
2021/03/07 05:39:03;;;;;;;3.95;1.60;;;2.70;92.40;;;;;;5075195;28;20371;-63
2021/03/07 05:41:28;;;;;;;6.63;1.67;;;2.80;92.30;;;;;;5074972;28;20055;-63
2021/03/07 05:43:54;;;;;;;4.38;1.88;;;2.80;92.40;;;;;;5073744;28;20060;-62
2021/03/07 05:46:20;;;;;;;2.50;1.67;;;2.80;92.30;;;;;;5073809;28;20025;-63
2021/03/07 05:48:45;;;;;;;3.30;1.58;;;2.80;92.30;;;;;;5074919;28;20040;-63
2021/03/07 05:51:13;;;;;;;4.80;1.92;;;2.80;92.20;;;;;;5074671;28;20028;-62
2021/03/07 05:53:46;;;;;;;3.17;1.60;;;2.80;92.30;;;;;;5074876;28;20044;-62
2021/03/07 05:56:12;;;;;;;4.70;2.00;;;2.80;92.20;;;;;;5073362;28;20063;-61
2021/03/07 05:58:39;;;;;;;5.93;2.17;;;2.80;92.20;;;;;;5074760;28;20020;-61
2021/03/07 06:01:05;;;;;;;5.20;1.75;;;2.80;92.10;;;;;;5073462;28;20366;-62
2021/03/07 06:03:31;;;;;;;6.45;2.03;;;2.80;91.90;;;;;;5074602;28;20025;-63
2021/03/07 06:05:57;;;;;;;3.85;1.77;;;2.80;91.90;;;;;;5074522;28;20032;-65
2021/03/07 06:08:22;;;;;;;4.25;1.90;;;2.80;91.90;;;;;;5074601;28;20034;-63
2021/03/07 06:10:49;;;;;;;3.65;1.40;;;2.90;91.90;;;;;;5074562;28;20468;-61
2021/03/07 06:13:16;;;;;;;3.30;1.60;;;2.80;91.60;;;;;;5074383;28;20399;-63
2021/03/07 06:15:44;;;;;;;2.60;1.60;;;2.90;91.60;;;;;;5073460;28;20024;-63
2021/03/07 06:18:17;;;;;;;4.47;1.63;;;2.90;91.60;;;;;;5074138;28;20082;-64
2021/03/07 06:20:44;;;;;;;2.85;1.60;;;2.90;91.50;;;;;;5074420;28;20031;-63
2021/03/07 06:23:10;;;;;;;3.00;1.35;;;2.90;91.40;;;;;;5074130;28;20028;-64
2021/03/07 06:25:45;;;;;;;3.75;1.67;;;2.90;91.30;;;;;;5074354;28;20383;-63
2021/03/07 06:28:25;;;;;;;2.42;1.52;;;2.90;91.30;;;;;;5074011;28;20388;-61
2021/03/07 06:30:53;;;;;;;5.50;1.75;;;3.00;91.10;;;;;;5071850;28;20024;-62
2021/03/07 06:33:33;;;;;;;6.20;1.92;;;3.00;91.00;;;;;;5073890;28;20098;-63
2021/03/07 06:36:20;;;;;;;3.78;1.55;;;3.00;90.90;;;;;;5074065;28;20379;-63
2021/03/07 06:38:48;;;;;;;3.47;1.83;;;3.00;91.10;;;;;;5073954;28;20428;-64
2021/03/07 06:41:19;;;;;;;3.90;1.70;;;3.10;90.90;;;;;;5073860;28;20103;-62
2021/03/07 06:43:47;;;;;;;2.47;1.48;;;3.10;90.70;;;;;;5073908;28;20027;-66
2021/03/07 06:46:30;;;;;;;5.07;1.63;;;3.10;90.70;;;;;;5072903;28;20398;-62
2021/03/07 06:48:56;;;;;;;2.92;1.50;;;3.10;90.70;;;;;;5073641;28;20413;-64
2021/03/07 06:51:30;;;;;;;3.42;1.88;;;3.20;90.70;;;;;;5073552;28;20171;-64
2021/03/07 06:53:56;;;;;;;5.90;2.10;;;3.20;90.60;;;;;;5073492;28;20052;-61
2021/03/07 06:56:49;;;;;;;2.55;1.75;;;3.20;90.30;;;;;;5073731;28;20098;-64
2021/03/07 06:59:22;;;;;;;5.28;1.90;;;3.20;90.20;;;;;;5070891;28;20554;-63
2021/03/07 07:01:49;;;;;;;3.05;1.90;;;3.20;90.20;;;;;;5073039;28;20025;-63
2021/03/07 07:04:16;;;;;;;3.80;1.80;;;3.30;90.20;;;;;;5073292;28;20024;-64
2021/03/07 07:06:43;;;;;;;6.63;1.95;;;3.30;90.30;;;;;;5073347;28;20108;-64
2021/03/07 07:09:10;;;;;;;3.72;1.67;;;3.30;90.20;;;;;;5073366;28;20040;-63
2021/03/07 07:11:47;;;;;;;3.63;1.58;;;3.40;90.10;;;;;;5073593;28;20024;-64
2021/03/07 07:14:28;;;;;;;4.00;1.95;;;3.40;89.90;;;;;;5070763;28;20075;-47
2021/03/07 07:16:54;;;;;;;4.32;2.10;;;3.40;89.90;;;;;;5072890;28;20029;-50
2021/03/07 07:19:20;;;;;;;2.75;2.10;;;3.40;89.70;;;;;;5073014;28;20028;-50
2021/03/07 07:21:47;;;;;;;2.10;1.63;;;3.40;89.60;;;;;;5073093;28;20537;-50
2021/03/07 07:24:14;;;;;;;6.55;1.95;;;3.40;89.70;;;;;;5072571;28;20023;-47
2021/03/07 07:26:40;;;;;;;2.63;1.75;;;3.50;89.50;;;;;;5072983;28;20482;-47
2021/03/07 07:29:07;;;;;;;3.67;1.80;;;3.50;89.20;;;;;;5072918;28;20178;-46
2021/03/07 07:31:58;;;;;;;3.58;2.25;;;3.50;88.90;;;;;;5072065;28;20499;-49
2021/03/07 07:34:48;;;;;;;4.72;1.50;;;3.50;88.60;;;;;;5072389;28;20024;-50
2021/03/07 07:37:23;;;;;;;2.35;1.67;;;3.60;88.50;;;;;;5072648;28;20100;-52
2021/03/07 07:39:54;;;;;;;5.18;2.00;;;3.70;88.60;;;;;;5072910;28;20024;-50
2021/03/07 07:42:32;;;;;;;4.40;1.80;;;3.80;88.10;;;;;;5072136;28;20031;-50
2021/03/07 07:45:19;;;;;;;3.40;1.77;;;3.80;87.90;;;;;;5066975;28;20028;-45
2021/03/07 07:47:50;;;;;;;4.47;2.00;;;3.90;87.10;;;;;;5066242;28;20021;-47
2021/03/07 07:50:31;;;;;;;2.83;1.50;;;3.90;87.10;;;;;;5071905;28;20107;-48
2021/03/07 07:52:58;;;;;;;3.55;1.50;;;3.90;86.90;;;;;;5091369;28;20024;-47
2021/03/07 07:55:57;;;;;;;3.10;1.92;;;4.00;87.00;;;;;;5092016;28;20036;-47
2021/03/07 07:58:34;;;;;;;4.20;2.13;;;4.00;85.70;;;;;;5092532;28;20028;-48
2021/03/07 08:01:40;;;;;;;3.22;1.63;;;4.10;85.20;;;;;;5091736;28;20012;-47
2021/03/07 08:04:28;;;;;;;2.28;1.50;;;4.20;85.70;;;;;;5092130;28;20056;-47
2021/03/07 08:06:54;;;;;;;4.97;1.88;;;4.20;84.10;;;;;;5092370;28;20024;-49
2021/03/07 08:09:45;;;;;;;2.78;1.40;;;4.30;85.10;;;;;;5073491;28;20381;-45
2021/03/07 08:12:42;;;;;;;3.35;1.70;;;4.40;84.00;;;;;;5051955;28;20017;-47
2021/03/07 08:15:25;;;;;;;5.57;1.60;;;4.40;83.70;;;;;;5049178;28;20029;-46
2021/03/07 08:17:57;;;;;;;3.45;1.65;;;4.50;83.90;;;;;;5051799;28;20031;-46
2021/03/07 08:20:54;;;;;;;6.82;1.67;;;4.60;84.00;;;;;;5051208;28;20029;-50
2021/03/07 08:23:21;;;;;;;2.63;1.67;;;4.60;82.20;;;;;;5018317;28;20436;-48
2021/03/07 08:25:50;;;;;;;7.28;2.05;;;4.60;82.60;;;;;;5052115;28;20033;-48
2021/03/07 08:28:31;;;;;;;6.13;1.83;;;4.60;82.20;;;;;;5051846;28;20062;-46
2021/03/07 08:30:57;;;;;;;4.47;1.75;;;4.60;82.00;;;;;;5050553;28;20025;-48
2021/03/07 08:33:24;;;;;;;4.53;1.45;;;4.60;83.00;;;;;;5051546;28;20017;-51
2021/03/07 08:36:15;;;;;;;4.20;1.80;;;4.60;82.40;;;;;;5051732;28;20041;-50
2021/03/07 08:38:53;;;;;;;3.20;1.92;;;4.60;81.60;;;;;;5052010;28;20021;-45
2021/03/07 08:41:22;;;;;;;4.05;2.65;;;4.70;82.30;;;;;;5051607;28;20066;-46
2021/03/07 08:43:57;;;;;;;9.05;2.03;;;4.70;82.30;;;;;;5051660;28;20049;-50
2021/03/07 08:46:25;;;;;;;6.13;1.85;;;4.70;82.30;;;;;;5050665;28;20021;-48
2021/03/07 08:48:55;;;;;;;4.60;1.75;;;4.70;82.60;;;;;;5051863;28;20087;-47
2021/03/07 08:51:31;;;;;;;4.88;1.75;;;4.70;82.50;;;;;;5062322;28;20078;-49
2021/03/07 08:54:05;;;;;;;4.28;2.20;;;4.80;82.60;;;;;;5073220;28;20048;-48
2021/03/07 08:56:31;;;;;;;6.90;1.85;;;4.80;82.10;;;;;;5075501;28;20036;-46
2021/03/07 08:58:57;;;;;;;3.17;1.63;;;4.80;81.80;;;;;;5075672;28;20032;-49
2021/03/07 09:01:24;;;;;;;4.82;1.83;;;4.80;82.20;;;;;;5074308;28;20063;-47
2021/03/07 09:04:01;;;;;;;3.15;1.98;;;4.90;81.80;;;;;;5075078;28;20024;-49
2021/03/07 09:06:40;;;;;;;4.75;1.90;;;4.90;82.00;;;;;;5075452;28;20297;-50
2021/03/07 09:09:20;;;;;;;3.35;1.92;;;5.00;81.40;;;;;;5075315;28;20033;-49
2021/03/07 09:12:04;;;;;;;5.70;2.42;;;5.00;81.40;;;;;;5074077;28;20024;-49
2021/03/07 09:14:38;;;;;;;4.32;2.00;;;5.00;81.20;;;;;;5066514;28;20037;-47
2021/03/07 09:17:07;;;;;;;5.15;2.08;;;5.00;80.90;;;;;;5075419;28;20395;-50
2021/03/07 09:19:41;;;;;;;5.22;1.95;;;5.00;81.00;;;;;;5075102;28;20024;-50
2021/03/07 09:22:27;;;;;;;3.38;1.83;;;5.00;80.90;;;;;;5074975;28;20028;-48
2021/03/07 09:25:06;;;;;;;4.57;1.63;;;5.10;80.50;;;;;;5075047;28;20048;-48
2021/03/07 09:27:43;;;;;;;4.13;2.67;;;5.00;79.60;;;;;;5074769;28;20535;-48
2021/03/07 09:30:21;;;;;;;3.53;2.03;;;5.00;80.30;;;;;;5073743;28;20035;-48
2021/03/07 09:32:49;;;;;;;3.55;2.20;;;4.90;80.00;;;;;;5074892;28;20067;-46
2021/03/07 09:35:34;;;;;;;5.70;2.17;;;5.00;80.70;;;;;;5074593;28;20020;-46
2021/03/07 09:37:59;;;;;;;2.47;1.70;;;5.00;80.10;;;;;;5074783;28;20020;-48
2021/03/07 09:40:31;;;;;;;2.50;1.60;;;5.00;80.70;;;;;;5074183;28;20051;-48
2021/03/07 09:43:06;;;;;;;3.65;1.90;;;5.00;80.80;;;;;;5074779;28;20154;-46
2021/03/07 09:45:32;;;;;;;4.10;2.03;;;5.10;80.20;;;;;;5073490;28;20029;-46
2021/03/07 09:47:58;;;;;;;4.10;2.25;;;5.10;80.20;;;;;;5074824;28;20024;-48
2021/03/07 09:50:24;;;;;;;5.28;2.75;;;5.10;79.80;;;;;;5074151;28;20043;-47
2021/03/07 09:52:51;;;;;;;5.20;2.22;;;5.10;80.30;;;;;;5074354;28;20035;-47
2021/03/07 09:55:29;;;;;;;7.32;2.70;;;5.10;80.10;;;;;;5074205;28;20045;-49
2021/03/07 09:58:01;;;;;;;5.28;2.47;;;5.00;79.90;;;;;;5074607;28;20024;-46
2021/03/07 10:00:28;;;;;;;4.15;2.17;;;5.00;80.10;;;;;;5073405;28;20107;-47
2021/03/07 10:02:54;;;;;;;3.97;2.45;;;5.00;80.30;;;;;;5075394;28;20028;-48
2021/03/07 10:05:20;;;;;;;4.20;2.22;;;5.00;80.10;;;;;;5073253;28;20036;-48
2021/03/07 10:07:45;;;;;;;5.28;2.58;;;5.00;80.60;;;;;;5073916;28;20123;-48
2021/03/07 10:10:17;;;;;;;6.38;3.00;;;5.00;80.70;;;;;;5073271;28;20024;-49
2021/03/07 10:12:45;;;;;;;4.65;2.75;;;5.00;80.50;;;;;;5073453;28;20024;-47
2021/03/07 10:15:29;;;;;;;5.82;3.17;;;5.00;80.30;;;;;;5072408;28;20067;-45
2021/03/07 10:18:00;;;;;;;4.45;2.47;;;5.00;80.60;;;;;;5073594;28;20444;-48
2021/03/07 10:20:35;;;;;;;6.38;2.70;;;5.00;80.60;;;;;;5072679;28;20074;-45
2021/03/07 10:23:00;;;;;;;3.88;2.70;;;5.00;80.60;;;;;;5073515;28;20443;-48
2021/03/07 10:25:30;;;;;;;6.53;2.90;;;5.00;80.40;;;;;;5073350;28;20108;-47
2021/03/07 10:27:57;;;;;;;6.10;2.60;;;5.00;80.10;;;;;;5073384;28;20040;-51
2021/03/07 10:30:34;;;;;;;5.53;2.70;;;5.00;80.20;;;;;;5072346;28;20078;-50
2021/03/07 10:33:29;;;;;;;6.15;2.85;;;5.10;80.00;;;;;;5073316;28;20036;-47
2021/03/07 10:35:58;;;;;;;5.32;2.50;;;5.00;79.80;;;;;;5063707;28;20032;-49
2021/03/07 10:38:23;;;;;;;4.93;2.65;;;5.00;80.50;;;;;;5077102;28;20048;-52
2021/03/07 10:40:50;;;;;;;4.30;2.83;;;5.00;80.70;;;;;;5073037;28;20028;-50
2021/03/07 10:43:16;;;;;;;5.28;2.92;;;5.10;80.80;;;;;;5073498;28;20024;-47
2021/03/07 10:45:41;;;;;;;5.60;2.90;;;5.10;80.10;;;;;;5072537;28;20414;-47
2021/03/07 10:48:09;;;;;;;9.65;3.22;;;5.10;80.30;;;;;;5073491;28;20028;-50
2021/03/07 10:50:37;;;;;;;6.97;2.60;;;5.10;80.40;;;;;;5073087;28;20040;-48
2021/03/07 10:53:03;;;;;;;5.95;2.58;;;5.10;80.40;;;;;;5073090;28;20021;-50
2021/03/07 10:55:29;;;;;;;4.53;3.10;;;5.10;80.30;;;;;;5075118;28;20124;-48
2021/03/07 10:57:55;;;;;;;5.13;2.60;;;5.00;79.70;;;;;;5082197;28;20104;-50
2021/03/07 11:00:23;;;;;;;4.13;2.95;;;5.00;80.10;;;;;;5075891;28;20100;-45
2021/03/07 11:02:48;;;;;;;6.32;2.53;;;5.00;80.10;;;;;;5075222;28;20023;-51
2021/03/07 11:05:16;;;;;;;3.50;2.78;;;5.10;80.10;;;;;;5092829;28;20032;-47
2021/03/07 11:07:42;;;;;;;9.95;5.53;;;5.10;80.20;;;;;;5093075;28;20452;-47
2021/03/07 11:10:10;;;;;;;9.32;3.55;;;5.10;80.30;;;;;;5084881;28;20032;-49
2021/03/07 11:12:37;;;;;;;3.55;2.85;;;5.10;80.10;;;;;;5072771;28;20028;-50
2021/03/07 11:15:04;;;;;;;7.28;3.47;;;5.10;80.00;;;;;;5071815;28;20032;-48
2021/03/07 11:17:30;;;;;;;6.20;3.80;;;5.20;80.00;;;;;;5070732;28;20035;-46
2021/03/07 11:19:56;;;;;;;5.32;3.20;;;5.20;79.40;;;;;;5072533;28;20040;-52
2021/03/07 11:22:22;;;;;;;7.18;4.40;;;5.20;79.00;;;;;;5072252;28;20376;-50
2021/03/07 11:24:47;;;;;;;8.77;3.40;;;5.20;79.30;;;;;;5072361;28;20024;-49
2021/03/07 11:27:13;;;;;;;4.70;3.08;;;5.20;79.40;;;;;;5071421;28;20024;-50
2021/03/07 11:29:39;;;;;;;7.07;3.20;;;5.20;79.80;;;;;;5070777;28;20503;-52
2021/03/07 11:32:05;;;;;;;5.88;3.35;;;5.20;79.70;;;;;;5072495;28;20581;-51
2021/03/07 11:34:31;;;;;;;7.00;3.38;;;5.30;79.90;;;;;;5071661;28;20024;-47
2021/03/07 11:36:56;;;;;;;9.68;3.45;;;5.30;79.70;;;;;;5072407;28;20105;-50
2021/03/07 11:39:22;;;;;;;4.60;3.08;;;5.30;79.60;;;;;;5071899;28;20471;-51
2021/03/07 11:41:47;;;;;;;6.57;3.67;;;5.30;79.60;;;;;;5072584;28;20107;-51
2021/03/07 11:44:13;;;;;;;5.10;3.10;;;5.30;79.60;;;;;;5071538;28;20107;-53
2021/03/07 11:46:38;;;;;;;6.30;3.95;;;5.30;79.40;;;;;;5072241;28;20495;-50
2021/03/07 11:49:04;;;;;;;7.65;2.65;;;5.30;79.30;;;;;;5072490;28;20116;-52
2021/03/07 11:51:29;;;;;;;8.48;3.60;;;5.30;79.10;;;;;;5072114;28;20127;-53
2021/03/07 11:53:55;;;;;;;5.28;3.22;;;5.30;79.40;;;;;;5070776;28;20044;-48
2021/03/07 11:56:20;;;;;;;6.60;3.15;;;5.20;79.10;;;;;;5072071;28;20028;-50
2021/03/07 11:58:46;;;;;;;7.47;3.75;;;5.30;79.30;;;;;;5072496;28;20025;-50
2021/03/07 12:01:11;;;;;;;11.85;3.40;;;5.20;79.40;;;;;;5070848;28;20459;-51
2021/03/07 12:03:37;;;;;;;10.75;3.55;;;5.20;79.40;;;;;;5073541;28;20032;-49
2021/03/07 12:06:02;;;;;;;6.45;3.30;;;5.10;79.60;;;;;;5071834;28;20563;-48
2021/03/07 12:08:28;;;;;;;8.45;3.53;;;5.10;79.70;;;;;;5071941;28;20035;-50
2021/03/07 12:10:54;;;;;;;8.57;3.85;;;5.10;79.40;;;;;;5071925;28;20039;-49
2021/03/07 12:13:19;;;;;;;5.10;3.13;;;5.10;79.70;;;;;;5071734;28;20100;-52
2021/03/07 12:15:45;;;;;;;7.65;3.22;;;5.10;79.60;;;;;;5070350;28;20041;-47
2021/03/07 12:18:10;;;;;;;7.20;3.28;;;5.10;79.80;;;;;;5072023;28;20032;-47
2021/03/07 12:20:36;;;;;;;4.35;3.17;;;5.10;80.00;;;;;;5077488;28;20093;-49
2021/03/07 12:23:01;;;;;;;7.00;3.20;;;5.20;79.90;;;;;;5071991;28;20532;-51
2021/03/07 12:25:27;;;;;;;5.22;2.70;;;5.10;80.00;;;;;;5072074;28;20046;-48
2021/03/07 12:27:52;;;;;;;5.05;2.65;;;5.10;80.20;;;;;;5072970;28;20036;-50
2021/03/07 12:30:18;;;;;;;6.82;2.97;;;5.10;80.10;;;;;;5074951;28;20111;-49
2021/03/07 12:32:44;;;;;;;7.20;3.00;;;5.10;80.20;;;;;;5075949;28;20187;-46
2021/03/07 12:35:10;;;;;;;11.20;3.00;;;5.00;80.20;;;;;;5075981;28;20176;-46
2021/03/07 12:37:35;;;;;;;10.30;3.25;;;5.10;80.30;;;;;;5075776;28;20029;-49
2021/03/07 12:40:02;;;;;;;6.40;3.45;;;5.10;80.40;;;;;;5075670;28;20025;-46
2021/03/07 12:42:28;;;;;;;5.07;2.65;;;5.00;80.00;;;;;;5073918;28;20029;-49
2021/03/07 12:44:53;;;;;;;8.07;3.17;;;5.00;80.50;;;;;;5075167;28;20029;-47
2021/03/07 12:47:20;;;;;;;6.22;3.38;;;5.00;80.10;;;;;;5075927;28;20024;-51
2021/03/07 12:49:47;;;;;;;7.95;3.17;;;5.00;80.30;;;;;;5074369;28;20039;-52
2021/03/07 12:52:12;;;;;;;6.18;3.72;;;4.90;80.40;;;;;;5075571;28;20029;-53
2021/03/07 12:54:38;;;;;;;6.85;3.95;;;5.00;80.60;;;;;;5074357;28;20052;-53
2021/03/07 12:57:04;;;;;;;7.03;3.97;;;4.90;80.30;;;;;;5074859;28;20029;-51
2021/03/07 12:59:29;;;;;;;6.82;3.95;;;4.90;80.40;;;;;;5073497;28;20414;-49
2021/03/07 13:01:55;;;;;;;5.57;3.10;;;4.90;80.40;;;;;;5070292;28;20074;-51
2021/03/07 13:04:20;;;;;;;5.43;3.38;;;4.90;80.40;;;;;;5065100;28;20060;-52
2021/03/07 13:06:46;;;;;;;5.35;3.03;;;4.90;80.70;;;;;;5072439;28;20033;-47